createdAt,value
2023-04-02T00:04:45.018Z,98811.53
2023-04-02T00:09:47.332Z,98820.13
2023-04-02T00:14:52.327Z,98824.41
2023-04-02T00:19:58.332Z,98824.41
2023-04-02T00:25:02.775Z,98830.41
2023-04-02T00:30:06.518Z,98839.81
2023-04-02T00:35:25.582Z,98843.22
2023-04-02T00:40:31.851Z,98846.72
2023-04-02T00:45:37.013Z,98851.84
2023-04-02T00:50:41.199Z,98847.56
2023-04-02T00:55:44.042Z,98850.94
2023-04-02T01:00:50.763Z,98852.66
2023-04-02T01:06:01.691Z,98846.69
2023-04-02T01:11:11.740Z,98850.06
2023-04-02T01:16:27.420Z,98845.78
2023-04-02T01:21:37.177Z,98839.75
2023-04-02T01:26:44.825Z,98851.72
2023-04-02T01:31:48.066Z,98844.75
2023-04-02T01:37:04.603Z,98844.84
2023-04-02T01:42:16.243Z,98843.94
2023-04-02T01:47:20.488Z,98853.25
2023-04-02T01:52:34.474Z,98842.13
2023-04-02T01:57:37.711Z,98837.88
2023-04-02T02:02:41.308Z,98837.06
2023-04-02T02:07:45.831Z,98843.06
2023-04-02T02:12:51.498Z,98837.91
2023-04-02T02:17:58.414Z,98847.34
2023-04-02T02:23:01.928Z,98849.81
2023-04-02T02:28:09.871Z,98846.31
2023-04-02T02:33:16.557Z,98854.09
2023-04-02T02:38:28.417Z,98843.66
2023-04-02T02:43:39.904Z,98849.78
2023-04-02T02:48:42.844Z,98856.59
2023-04-02T02:53:48.737Z,98856.66
2023-04-02T02:58:53.735Z,98864.38
2023-04-02T03:04:03.333Z,98861.72
2023-04-02T03:09:12.702Z,98865.97
2023-04-02T03:14:27.197Z,98868.50
2023-04-02T03:20:08.931Z,98871.91
2023-04-02T03:25:31.139Z,98880.53
2023-04-02T03:30:38.324Z,98890.78
2023-04-02T03:35:44.686Z,98885.66
2023-04-02T03:40:58.268Z,98887.28
2023-04-02T03:46:09.848Z,98887.25
2023-04-02T03:51:16.889Z,98882.06
2023-04-02T03:56:26.701Z,98889.69
2023-04-02T04:01:34.610Z,98883.59
2023-04-02T04:06:41.509Z,98883.59
2023-04-02T04:11:45.853Z,98885.47
2023-04-02T04:17:04.560Z,98896.72
2023-04-02T04:22:15.143Z,98895.78
2023-04-02T04:27:23.918Z,98905.97
2023-04-02T04:32:33.947Z,98909.16
2023-04-02T04:37:49.735Z,98911.72
2023-04-02T04:42:57.098Z,98912.56
2023-04-02T04:48:01.740Z,98910.75
2023-04-02T04:53:06.550Z,98915.84
2023-04-02T04:58:19.668Z,98906.50
2023-04-02T05:03:32.346Z,98912.41
2023-04-02T05:08:37.819Z,98916.84
2023-04-02T05:13:53.437Z,98921.09
2023-04-02T05:19:07.918Z,98932.13
2023-04-02T05:24:32.109Z,98924.28
2023-04-02T05:29:37.732Z,98929.53
2023-04-02T05:34:42.439Z,98931.13
2023-04-02T05:39:46.321Z,98926.53
2023-04-02T05:45:09.773Z,98929.78
2023-04-02T05:50:18.305Z,98932.28
2023-04-02T05:55:34.657Z,98929.47
2023-04-02T06:00:47.794Z,98935.56
2023-04-02T06:05:58.239Z,98936.31
2023-04-02T06:11:05.033Z,98936.03
2023-04-02T06:16:10.656Z,98933.84
2023-04-02T06:21:15.549Z,98936.03
2023-04-02T06:26:37.223Z,98936.69
2023-04-02T06:31:42.696Z,98930.47
2023-04-02T06:36:48.737Z,98924.34
2023-04-02T06:42:10.359Z,98924.38
2023-04-02T06:47:47.284Z,98929.09
2023-04-02T06:53:09.810Z,98930.25
2023-04-02T06:58:15.550Z,98944.84
2023-04-02T07:03:23.678Z,98950.69
2023-04-02T07:08:27.874Z,98950.56
2023-04-02T07:13:30.295Z,98950.59
2023-04-02T07:18:33.838Z,98961.50
2023-04-02T07:23:39.771Z,98959.69
2023-04-02T07:28:42.130Z,98970.34
2023-04-02T07:33:45.203Z,98967.72
2023-04-02T07:38:47.811Z,98971.16
2023-04-02T07:43:50.678Z,98956.59
2023-04-02T07:48:53.087Z,98972.31
2023-04-02T07:53:56.307Z,98965.53
2023-04-02T07:58:58.817Z,98968.06
2023-04-02T08:04:01.842Z,98977.72
2023-04-02T08:09:04.311Z,98974.31
2023-04-02T08:14:06.951Z,98985.78
2023-04-02T08:19:09.358Z,98979.53
2023-04-02T08:24:11.863Z,98976.09
2023-04-02T08:29:14.237Z,98979.53
2023-04-02T08:34:16.697Z,98970.53
2023-04-02T08:39:19.160Z,98977.41
2023-04-02T08:44:36.770Z,98983.50
2023-04-02T08:49:42.163Z,98978.03
2023-04-02T08:54:44.643Z,98983.28
2023-04-02T08:59:48.087Z,98979.22
2023-04-02T09:04:51.139Z,98979.53
2023-04-02T09:09:53.560Z,98981.38
2023-04-02T09:15:11.363Z,98990.47
2023-04-02T09:20:13.700Z,98985.25
2023-04-02T09:25:21.066Z,98983.50
2023-04-02T09:30:32.475Z,98983.13
2023-04-02T09:35:54.858Z,98989.13
2023-04-02T09:41:07.580Z,98986.97
2023-04-02T09:46:13.044Z,98995.59
2023-04-02T09:51:25.690Z,98995.84
2023-04-02T09:56:28.538Z,98984.81
2023-04-02T10:01:35.657Z,98986.66
2023-04-02T10:06:48.812Z,98987.31
2023-04-02T10:11:51.859Z,98988.81
2023-04-02T10:16:56.907Z,98988.38
2023-04-02T10:22:00.907Z,98977.13
2023-04-02T10:27:18.595Z,98977.22
2023-04-02T10:32:32.592Z,98981.19
2023-04-02T10:37:47.253Z,98976.50
2023-04-02T10:43:08.304Z,98977.13
2023-04-02T10:48:28.773Z,98966.91
2023-04-02T10:53:41.004Z,98972.75
2023-04-02T10:58:52.392Z,98961.47
2023-04-02T11:03:58.822Z,98961.59
2023-04-02T11:09:05.014Z,98960.38
2023-04-02T11:14:24.417Z,98957.72
2023-04-02T11:19:33.204Z,98969.25
2023-04-02T11:24:37.538Z,98983.94
2023-04-02T11:29:58.360Z,98986.22
2023-04-02T11:35:06.370Z,99000.13
2023-04-02T11:40:14.201Z,98980.88
2023-04-02T11:45:29.229Z,98980.28
2023-04-02T11:50:36.141Z,98975.59
2023-04-02T11:55:41.540Z,98973.66
2023-04-02T12:01:02.431Z,98976.50
2023-04-02T12:06:10.900Z,98972.25
2023-04-02T12:11:13.711Z,98973.72
2023-04-02T12:16:17.044Z,98980.88
2023-04-02T12:21:20.934Z,98981.66
2023-04-02T12:26:32.179Z,98990.56
2023-04-02T12:31:35.020Z,99002.16
2023-04-02T12:36:37.506Z,99005.13
2023-04-02T13:12:32.640Z,99005.00
2023-04-02T13:17:48.858Z,98979.97
2023-04-02T13:22:51.433Z,98994.38
2023-04-02T13:27:54.733Z,98997.81
2023-04-02T13:32:57.401Z,98996.16
2023-04-02T13:38:02.953Z,98977.94
2023-04-02T13:43:06.678Z,98994.69
2023-04-02T13:48:14.603Z,98987.56
2023-04-02T13:53:31.365Z,98984.19
2023-04-02T13:58:34.648Z,98983.06
2023-04-02T14:03:37.935Z,98983.19
2023-04-02T14:09:10.119Z,98990.94
2023-04-02T14:14:24.975Z,98998.25
2023-04-02T14:19:57.612Z,98986.13
2023-04-02T14:25:11.357Z,98988.84
2023-04-02T14:30:31.134Z,98985.91
2023-04-02T14:35:33.810Z,98982.06
2023-04-02T14:40:57.247Z,98985.94
2023-04-02T14:46:08.215Z,98988.06
2023-04-02T14:51:37.427Z,98991.06
2023-04-02T14:56:47.490Z,98987.78
2023-04-02T15:01:59.925Z,98996.38
2023-04-02T15:07:14.075Z,99000.91
2023-04-02T15:12:23.945Z,98992.63
2023-04-02T15:17:26.911Z,99003.97
2023-04-02T15:22:42.756Z,99008.41
2023-04-02T15:28:19.753Z,99008.56
2023-04-02T15:33:37.655Z,99008.00
2023-04-02T15:38:44.921Z,99004.13
2023-04-02T15:44:08.147Z,99008.41
2023-04-02T15:49:32.455Z,99023.28
2023-04-02T15:54:38.017Z,99025.34
2023-04-02T15:59:49.565Z,99028.91
2023-04-02T16:05:01.167Z,99026.53
2023-04-02T16:10:15.690Z,99036.94
2023-04-02T16:15:34.647Z,99038.06
2023-04-02T16:20:43.085Z,99037.53
2023-04-02T16:25:57.485Z,99054.72
2023-04-02T16:31:03.732Z,99051.44
2023-04-02T16:36:46.897Z,99047.16
2023-04-02T16:41:58.551Z,99074.56
2023-04-02T16:47:01.302Z,99079.88
2023-04-02T16:52:10.354Z,99075.84
2023-04-02T16:57:25.095Z,99078.41
2023-04-02T17:02:40.039Z,99081.88
2023-04-02T17:08:09.961Z,99063.94
2023-04-02T17:13:21.321Z,99070.81
2023-04-02T17:18:26.943Z,99085.41
2023-04-02T17:23:32.187Z,99059.72
2023-04-02T17:28:37.121Z,99049.59
2023-04-02T17:33:39.901Z,99095.75
2023-04-02T17:38:59.716Z,99092.22
2023-04-02T17:44:31.012Z,99042.13
2023-04-02T17:49:48.642Z,99098.56
2023-04-02T17:55:18.674Z,99093.47
2023-04-02T18:00:36.067Z,99094.47
2023-04-02T18:05:50.899Z,99106.53
2023-04-02T18:11:06.150Z,99104.88
2023-04-02T18:16:32.427Z,99115.34
2023-04-02T18:21:35.043Z,99118.75
2023-04-02T18:26:47.727Z,99117.91
2023-04-02T18:32:17.965Z,99121.31
2023-04-02T18:37:46.954Z,99121.22
2023-04-02T18:43:23.215Z,99125.53
2023-04-02T18:48:56.896Z,99122.19
2023-04-02T18:54:18.887Z,99094.38
2023-04-02T18:59:40.081Z,99132.97
2023-04-02T19:04:59.504Z,99115.09
2023-04-02T19:10:13.931Z,99124.50
2023-04-02T19:15:19.427Z,99128.00
2023-04-02T19:20:36.766Z,99116.03
2023-04-02T19:25:39.615Z,99141.81
2023-04-02T19:31:00.737Z,99140.16
2023-04-02T19:36:22.580Z,99135.78
2023-04-02T19:41:40.407Z,99135.88
2023-04-02T19:46:43.888Z,99135.22
2023-04-02T19:51:46.741Z,99142.84
2023-04-02T19:56:49.486Z,99147.25
2023-04-02T20:01:52.190Z,99122.66
2023-04-02T20:06:55.064Z,99156.00
2023-04-02T20:11:59.626Z,99151.75
2023-04-02T20:17:05.099Z,99154.41
2023-04-02T20:22:07.974Z,99121.06
2023-04-02T20:27:10.624Z,99161.34
2023-04-02T20:32:13.243Z,99156.19
2023-04-02T20:37:15.955Z,99164.03
2023-04-02T20:42:18.684Z,99161.34
2023-04-02T20:47:21.578Z,99170.91
2023-04-02T20:52:24.420Z,99160.53
2023-04-02T20:57:29.673Z,99160.59
2023-04-02T21:02:32.423Z,99134.25
2023-04-02T21:07:35.092Z,99164.09
2023-04-02T21:12:37.723Z,99177.88
2023-04-02T21:17:40.988Z,99173.66
2023-04-02T21:22:43.750Z,99182.38
2023-04-02T21:27:46.414Z,99185.88
2023-04-02T21:32:49.127Z,99177.22
2023-04-02T21:37:52.020Z,99180.78
2023-04-02T21:42:55.578Z,99187.09
2023-04-02T21:47:58.433Z,99198.28
2023-04-02T21:53:01.720Z,99195.72
2023-04-02T21:58:04.308Z,99180.13
2023-04-02T22:03:07.197Z,99187.03
2023-04-02T22:08:10.782Z,99194.72
2023-04-02T22:13:13.384Z,99188.78
2023-04-02T22:18:16.384Z,99191.28
2023-04-02T22:23:19.599Z,99199.16
2023-04-02T22:28:23.214Z,99199.16
2023-04-02T22:33:25.849Z,99196.66
2023-04-02T22:38:28.641Z,99188.97
2023-04-02T22:43:31.796Z,99188.16
2023-04-02T22:48:35.192Z,99190.66
2023-04-02T22:53:38.769Z,99186.38
2023-04-02T22:58:42.021Z,99187.31
2023-04-02T23:03:45.828Z,99191.63
2023-04-02T23:08:48.568Z,99160.91
2023-04-02T23:13:53.424Z,99191.69
2023-04-02T23:18:56.982Z,99186.44
2023-04-02T23:23:59.932Z,99169.31
2023-04-02T23:29:02.837Z,99186.53
2023-04-02T23:34:05.586Z,99193.44
2023-04-02T23:39:12.437Z,99196.13
2023-04-02T23:44:15.652Z,99189.34
2023-04-02T23:49:19.072Z,99195.31
2023-04-02T23:54:22.331Z,99191.00
2023-04-02T23:59:24.976Z,99194.47
